Time,TemperatureF,DewpointF,PressureIn,WindDirection,WindDirectionDegrees,WindSpeedMPH,WindSpeedGustMPH,Humidity,HourlyPrecipIn,Conditions,Clouds,dailyrainin,SolarRadiationWatts/m^2,SoftwareType,DateUTC
2013-12-23 00:03:00,46.8,37.1,30.40,NNW,338,5.8,5.8,69,0.00,CLR,,0.00,0.0,WeatherDisplay:10.37,2013-12-22 22:03:00,
2013-12-23 00:08:00,46.8,37.1,30.40,North,0,5.8,5.8,69,0.00,CLR,,0.00,0.0,WeatherDisplay:10.37,2013-12-22 22:08:00,
2013-12-23 00:13:00,46.6,37.0,30.41,NW,315,5.8,5.8,69,0.00,CLR,,0.00,0.0,WeatherDisplay:10.37,2013-12-22 22:13:00,
2013-12-23 00:18:00,46.6,37.3,30.40,North,0,3.8,3.8,70,0.00,CLR,,0.00,0.0,WeatherDisplay:10.37,2013-12-22 22:18:00,
2013-12-23 00:23:00,46.4,37.1,30.40,North,0,5.8,5.8,70,0.00,CLR,,0.00,0.0,WeatherDisplay:10.37,2013-12-22 22:23:00,
2013-12-23 00:28:00,46.4,37.1,30.40,NE,45,5.8,5.8,70,0.00,CLR,,0.00,0.0,WeatherDisplay:10.37,2013-12-22 22:28:00,
2013-12-23 00:33:00,46.2,37.0,30.40,NNE,22,4.6,4.6,70,0.00,CLR,,0.00,0.0,WeatherDisplay:10.37,2013-12-22 22:33:00,
2013-12-23 00:38:00,46.2,37.0,30.40,North,0,6.0,6.0,70,0.00,CLR,,0.00,0.0,WeatherDisplay:10.37,2013-12-22 22:38:00,
2013-12-23 00:43:00,46.2,36.6,30.40,North,0,6.9,6.9,69,0.00,CLR,,0.00,0.0,WeatherDisplay:10.37,2013-12-22 22:43:00,
2013-12-23 00:48:00,46.2,36.6,30.40,North,0,3.5,3.5,69,0.00,CLR,,0.00,0.0,WeatherDisplay:10.37,2013-12-22 22:48:00,
2013-12-23 00:53:00,46.2,36.6,30.39,North,0,6.9,6.9,69,0.00,CLR,,0.00,0.0,WeatherDisplay:10.37,2013-12-22 22:53:00,
2013-12-23 00:58:00,46.4,36.8,30.40,North,0,4.0,4.0,69,0.00,CLR,,0.00,0.0,WeatherDisplay:10.37,2013-12-22 22:58:00,
2013-12-23 01:03:00,46.4,36.8,30.39,North,0,5.8,5.8,69,0.00,CLR,,0.00,0.0,WeatherDisplay:10.37,2013-12-22 23:03:00,
2013-12-23 01:08:00,46.4,36.8,30.40,NNW,338,4.6,4.6,69,0.00,CLR,,0.00,0.0,WeatherDisplay:10.37,2013-12-22 23:08:00,
2013-12-23 01:13:00,46.4,36.8,30.40,North,0,3.5,3.5,69,0.00,CLR,,0.00,0.0,WeatherDisplay:10.37,2013-12-22 23:13:00,
2013-12-23 01:18:00,46.2,36.6,30.40,North,0,4.6,4.6,69,0.00,CLR,,0.00,0.0,WeatherDisplay:10.37,2013-12-22 23:18:00,
2013-12-23 01:23:00,46.2,36.6,30.40,NNW,338,4.6,4.6,69,0.00,CLR,,0.00,0.0,WeatherDisplay:10.37,2013-12-22 23:23:00,
2013-12-23 01:28:00,46.2,36.6,30.39,NNE,22,3.6,3.6,69,0.00,CLR,,0.00,0.0,WeatherDisplay:10.37,2013-12-22 23:28:00,
2013-12-23 01:33:00,46.2,36.6,30.39,North,0,3.6,3.6,69,0.00,CLR,,0.00,0.0,WeatherDisplay:10.37,2013-12-22 23:33:00,
2013-12-23 01:38:00,46.2,37.0,30.39,NNE,22,2.5,2.5,70,0.00,CLR,,0.00,0.0,WeatherDisplay:10.37,2013-12-22 23:38:00,
2013-12-23 01:43:00,46.0,36.8,30.39,NNE,22,2.3,2.3,70,0.00,CLR,,0.00,0.0,WeatherDisplay:10.37,2013-12-22 23:43:00,
2013-12-23 01:48:00,46.0,36.8,30.39,North,0,3.5,3.5,70,0.00,CLR,,0.00,0.0,WeatherDisplay:10.37,2013-12-22 23:48:00,
2013-12-23 01:53:00,45.7,36.5,30.39,NNE,22,3.5,3.5,70,0.00,CLR,,0.00,0.0,WeatherDisplay:10.37,2013-12-22 23:53:00,
2013-12-23 01:58:00,45.3,35.7,30.39,North,0,2.3,2.3,69,0.00,CLR,,0.00,0.0,WeatherDisplay:10.37,2013-12-22 23:58:00,
2013-12-23 02:03:00,45.1,35.6,30.39,NE,45,4.6,4.6,69,0.00,CLR,,0.00,0.0,WeatherDisplay:10.37,2013-12-23 00:03:00,
2013-12-23 02:08:00,45.1,35.2,30.38,North,0,2.3,2.3,68,0.00,CLR,,0.00,0.0,WeatherDisplay:10.37,2013-12-23 00:08:00,
2013-12-23 02:13:00,44.8,34.9,30.38,North,0,3.5,3.5,68,0.00,CLR,,0.00,0.0,WeatherDisplay:10.37,2013-12-23 00:13:00,
2013-12-23 02:18:00,44.8,34.9,30.38,NNW,338,5.1,5.1,68,0.00,CLR,,0.00,0.0,WeatherDisplay:10.37,2013-12-23 00:18:00,
2013-12-23 02:23:00,44.8,34.9,30.38,North,0,3.5,3.5,68,0.00,CLR,,0.00,0.0,WeatherDisplay:10.37,2013-12-23 00:23:00,
2013-12-23 02:28:00,44.8,34.9,30.38,NE,45,5.8,5.8,68,0.00,CLR,,0.00,0.0,WeatherDisplay:10.37,2013-12-23 00:28:00,
2013-12-23 02:33:00,45.0,35.0,30.38,NNW,338,3.5,3.5,68,0.00,CLR,,0.00,0.0,WeatherDisplay:10.37,2013-12-23 00:33:00,
2013-12-23 02:38:00,45.1,35.2,30.38,North,0,4.6,4.6,68,0.00,CLR,,0.00,0.0,WeatherDisplay:10.37,2013-12-23 00:38:00,
2013-12-23 02:43:00,45.1,35.2,30.38,North,0,3.5,3.5,68,0.00,CLR,,0.00,0.0,WeatherDisplay:10.37,2013-12-23 00:43:00,
2013-12-23 02:48:00,45.3,35.7,30.38,North,0,3.5,3.5,69,0.00,CLR,,0.00,0.0,WeatherDisplay:10.37,2013-12-23 00:48:00,
2013-12-23 02:53:00,45.3,35.7,30.38,North,0,5.8,5.8,69,0.00,CLR,,0.00,0.0,WeatherDisplay:10.37,2013-12-23 00:53:00,
2013-12-23 02:58:00,45.5,35.9,30.38,North,0,3.5,3.5,69,0.00,CLR,,0.00,0.0,WeatherDisplay:10.37,2013-12-23 00:58:00,
2013-12-23 03:03:00,45.5,35.9,30.38,North,0,3.5,3.5,69,0.00,CLR,,0.00,0.0,WeatherDisplay:10.37,2013-12-23 01:03:00,
2013-12-23 03:08:00,45.7,36.1,30.38,North,0,3.5,3.5,69,0.00,CLR,,0.00,0.0,WeatherDisplay:10.37,2013-12-23 01:08:00,
2013-12-23 03:13:00,45.7,36.1,30.38,North,0,2.3,2.3,69,0.00,CLR,,0.00,0.0,WeatherDisplay:10.37,2013-12-23 01:13:00,
2013-12-23 03:18:00,45.5,35.9,30.38,NE,45,3.5,3.5,69,0.00,CLR,,0.00,0.0,WeatherDisplay:10.37,2013-12-23 01:18:00,
2013-12-23 03:23:00,45.3,35.7,30.38,NNW,338,3.5,3.5,69,0.00,CLR,,0.00,0.0,WeatherDisplay:10.37,2013-12-23 01:23:00,
2013-12-23 03:28:00,45.1,35.6,30.38,NNE,22,2.3,2.3,69,0.00,CLR,,0.00,0.0,WeatherDisplay:10.37,2013-12-23 01:28:00,
2013-12-23 03:33:00,45.1,35.6,30.38,ENE,68,0.0,0.0,69,0.00,CLR,,0.00,0.0,WeatherDisplay:10.37,2013-12-23 01:33:00,
2013-12-23 03:38:00,45.0,35.4,30.37,NE,45,4.6,4.6,69,0.00,CLR,,0.00,0.0,WeatherDisplay:10.37,2013-12-23 01:38:00,
2013-12-23 03:43:00,44.8,35.2,30.37,NE,45,4.5,4.5,69,0.00,CLR,,0.00,0.0,WeatherDisplay:10.37,2013-12-23 01:43:00,
2013-12-23 03:48:00,45.0,35.4,30.37,North,0,4.6,4.6,69,0.00,CLR,,0.00,0.0,WeatherDisplay:10.37,2013-12-23 01:48:00,
2013-12-23 03:53:00,44.8,35.2,30.37,ENE,68,4.6,4.6,69,0.00,CLR,,0.00,0.0,WeatherDisplay:10.37,2013-12-23 01:53:00,
2013-12-23 03:58:00,45.0,35.4,30.37,NNW,338,4.0,4.0,69,0.00,CLR,,0.00,0.0,WeatherDisplay:10.37,2013-12-23 01:58:00,
2013-12-23 04:03:00,44.8,35.2,30.37,NNW,338,4.6,4.6,69,0.00,CLR,,0.00,0.0,WeatherDisplay:10.37,2013-12-23 02:03:00,
2013-12-23 04:08:00,45.0,35.4,30.37,North,0,4.6,4.6,69,0.00,CLR,,0.00,0.0,WeatherDisplay:10.37,2013-12-23 02:08:00,
2013-12-23 04:13:00,45.0,35.8,30.37,NNW,338,5.6,5.6,70,0.00,CLR,,0.00,0.0,WeatherDisplay:10.37,2013-12-23 02:13:00,
2013-12-23 04:18:00,45.1,35.9,30.37,NNE,22,5.8,5.8,70,0.00,CLR,,0.00,0.0,WeatherDisplay:10.37,2013-12-23 02:18:00,
2013-12-23 04:23:00,45.3,36.1,30.37,NW,315,5.8,5.8,70,0.00,CLR,,0.00,0.0,WeatherDisplay:10.37,2013-12-23 02:23:00,
2013-12-23 04:28:00,45.5,36.3,30.37,NNW,338,2.3,2.3,70,0.00,CLR,,0.00,0.0,WeatherDisplay:10.37,2013-12-23 02:28:00,
2013-12-23 04:33:00,45.5,36.3,30.37,North,0,3.5,3.5,70,0.00,CLR,,0.00,0.0,WeatherDisplay:10.37,2013-12-23 02:33:00,
2013-12-23 04:38:00,45.5,36.3,30.37,North,0,3.5,3.5,70,0.00,CLR,,0.00,0.0,WeatherDisplay:10.37,2013-12-23 02:38:00,
2013-12-23 04:43:00,45.5,36.3,30.37,North,0,3.5,3.5,70,0.00,CLR,,0.00,0.0,WeatherDisplay:10.37,2013-12-23 02:43:00,
2013-12-23 04:48:00,45.3,36.1,30.38,NNE,22,3.5,3.5,70,0.00,CLR,,0.00,0.0,WeatherDisplay:10.37,2013-12-23 02:48:00,
2013-12-23 04:53:00,45.3,36.1,30.37,North,0,3.5,3.5,70,0.00,CLR,,0.00,0.0,WeatherDisplay:10.37,2013-12-23 02:53:00,
2013-12-23 04:58:00,45.0,35.8,30.36,North,0,8.1,8.1,70,0.00,CLR,,0.00,0.0,WeatherDisplay:10.37,2013-12-23 02:58:00,
2013-12-23 05:03:00,44.6,35.4,30.36,NNE,22,5.8,5.8,70,0.00,CLR,,0.00,0.0,WeatherDisplay:10.37,2013-12-23 03:03:00,
2013-12-23 05:08:00,44.4,35.2,30.37,NW,315,5.8,5.8,70,0.00,CLR,,0.00,0.0,WeatherDisplay:10.37,2013-12-23 03:08:00,
2013-12-23 05:13:00,44.4,34.9,30.37,NE,45,4.6,4.6,69,0.00,CLR,,0.00,0.0,WeatherDisplay:10.37,2013-12-23 03:13:00,
2013-12-23 05:18:00,44.4,34.9,30.37,NE,45,4.6,4.6,69,0.00,CLR,,0.00,0.0,WeatherDisplay:10.37,2013-12-23 03:18:00,
2013-12-23 05:23:00,44.4,34.5,30.37,ENE,68,3.5,3.5,68,0.00,CLR,,0.00,0.0,WeatherDisplay:10.37,2013-12-23 03:23:00,
2013-12-23 05:28:00,44.4,34.9,30.37,NE,45,4.6,4.6,69,0.00,CLR,,0.00,0.0,WeatherDisplay:10.37,2013-12-23 03:28:00,
2013-12-23 05:33:00,44.8,35.2,30.37,North,0,3.5,3.5,69,0.00,CLR,,0.00,0.0,WeatherDisplay:10.37,2013-12-23 03:33:00,
2013-12-23 05:38:00,44.6,35.1,30.36,East,90,4.6,4.6,69,0.00,CLR,,0.00,0.0,WeatherDisplay:10.37,2013-12-23 03:38:00,
2013-12-23 05:43:00,44.4,34.5,30.36,NNW,338,6.9,6.9,68,0.00,CLR,,0.00,0.0,WeatherDisplay:10.37,2013-12-23 03:43:00,
2013-12-23 05:48:00,44.4,34.1,30.36,North,0,8.1,8.1,67,0.00,CLR,,0.00,0.0,WeatherDisplay:10.37,2013-12-23 03:48:00,
2013-12-23 05:53:00,44.6,34.3,30.37,East,90,5.8,5.8,67,0.00,CLR,,0.00,0.0,WeatherDisplay:10.37,2013-12-23 03:53:00,
2013-12-23 05:58:00,45.0,35.0,30.37,NNW,338,5.8,5.8,68,0.00,CLR,,0.00,0.0,WeatherDisplay:10.37,2013-12-23 03:58:00,
2013-12-23 06:03:00,45.1,35.2,30.37,North,0,5.8,5.8,68,0.00,CLR,,0.00,0.0,WeatherDisplay:10.37,2013-12-23 04:03:00,
2013-12-23 06:08:00,45.1,35.6,30.37,NNW,338,8.1,8.1,69,0.00,CLR,,0.00,0.0,WeatherDisplay:10.37,2013-12-23 04:08:00,
2013-12-23 06:13:00,45.1,35.9,30.36,North,0,5.8,5.8,70,0.00,CLR,,0.00,0.0,WeatherDisplay:10.37,2013-12-23 04:13:00,
2013-12-23 06:18:00,45.0,36.1,30.37,NNW,338,3.6,3.6,71,0.00,CLR,,0.00,0.0,WeatherDisplay:10.37,2013-12-23 04:18:00,
2013-12-23 06:23:00,45.0,36.1,30.37,North,0,4.6,4.6,71,0.00,CLR,,0.00,0.0,WeatherDisplay:10.37,2013-12-23 04:23:00,
2013-12-23 06:28:00,45.0,36.1,30.36,North,0,5.8,5.8,71,0.00,CLR,,0.00,0.0,WeatherDisplay:10.37,2013-12-23 04:28:00,
2013-12-23 06:33:00,44.8,36.3,30.36,North,0,4.6,4.6,72,0.00,CLR,,0.00,0.0,WeatherDisplay:10.37,2013-12-23 04:33:00,
2013-12-23 06:38:00,44.6,36.1,30.36,East,90,6.9,6.9,72,0.00,CLR,,0.00,0.0,WeatherDisplay:10.37,2013-12-23 04:38:00,
2013-12-23 06:43:00,44.4,36.3,30.37,NE,45,4.6,4.6,73,0.00,CLR,,0.00,0.0,WeatherDisplay:10.37,2013-12-23 04:43:00,
2013-12-23 06:48:00,44.4,36.3,30.37,NE,45,8.1,8.1,73,0.00,CLR,,0.00,0.0,WeatherDisplay:10.37,2013-12-23 04:48:00,
2013-12-23 06:53:00,44.2,36.1,30.37,North,0,6.9,6.9,73,0.00,CLR,,0.00,0.0,WeatherDisplay:10.37,2013-12-23 04:53:00,
2013-12-23 06:58:00,44.1,36.3,30.37,NW,315,6.9,6.9,74,0.00,CLR,,0.00,0.0,WeatherDisplay:10.37,2013-12-23 04:58:00,
2013-12-23 07:01:00,43.9,36.1,30.37,North,0,3.6,3.6,74,0.00,CLR,,0.00,0.0,WeatherDisplay:10.37,2013-12-23 05:01:00,
2013-12-23 07:02:00,43.9,36.1,30.37,NNE,22,3.5,3.5,74,0.00,CLR,,0.00,0.0,WeatherDisplay:10.37,2013-12-23 05:02:00,
2013-12-23 07:07:00,43.9,36.1,30.37,North,0,4.6,4.6,74,0.00,CLR,,0.00,0.0,WeatherDisplay:10.37,2013-12-23 05:07:00,
2013-12-23 07:12:00,43.7,36.3,30.37,North,0,5.4,5.4,75,0.00,CLR,,0.00,0.0,WeatherDisplay:10.37,2013-12-23 05:12:00,
2013-12-23 07:17:00,43.7,36.0,30.38,North,0,4.0,4.0,74,0.00,CLR,,0.00,0.0,WeatherDisplay:10.37,2013-12-23 05:17:00,
2013-12-23 07:22:00,43.7,36.3,30.37,North,0,8.1,8.1,75,0.00,CLR,,0.00,0.0,WeatherDisplay:10.37,2013-12-23 05:22:00,
2013-12-23 07:27:00,43.5,36.1,30.37,North,0,5.8,5.8,75,0.00,CLR,,0.00,0.0,WeatherDisplay:10.37,2013-12-23 05:27:00,
2013-12-23 07:32:00,43.5,36.1,30.37,NE,45,5.8,5.8,75,0.00,CLR,,0.00,0.0,WeatherDisplay:10.37,2013-12-23 05:32:00,
2013-12-23 07:37:00,43.5,36.1,30.37,North,0,4.6,4.6,75,0.00,CLR,,0.00,0.0,WeatherDisplay:10.37,2013-12-23 05:37:00,
2013-12-23 07:42:00,43.5,36.5,30.37,North,0,2.5,2.5,76,0.00,CLR,,0.00,0.0,WeatherDisplay:10.37,2013-12-23 05:42:00,
2013-12-23 07:47:00,43.7,36.6,30.37,NNE,22,5.8,5.8,76,0.00,CLR,,0.00,0.0,WeatherDisplay:10.37,2013-12-23 05:47:00,
2013-12-23 07:52:00,43.7,36.6,30.37,NW,315,4.6,4.6,76,0.00,CLR,,0.00,0.0,WeatherDisplay:10.37,2013-12-23 05:52:00,
2013-12-23 07:57:00,43.7,36.6,30.38,NE,45,4.6,4.6,76,0.00,CLR,,0.00,0.0,WeatherDisplay:10.37,2013-12-23 05:57:00,
2013-12-23 08:02:00,43.9,36.8,30.38,North,0,3.8,3.8,76,0.00,CLR,,0.00,0.0,WeatherDisplay:10.37,2013-12-23 06:02:00,
2013-12-23 08:07:00,44.2,36.8,30.37,NE,45,6.9,6.9,75,0.00,CLR,,0.00,0.0,WeatherDisplay:10.37,2013-12-23 06:07:00,
2013-12-23 08:12:00,44.4,37.0,30.37,East,90,4.6,4.6,75,0.00,CLR,,0.00,0.0,WeatherDisplay:10.37,2013-12-23 06:12:00,
2013-12-23 08:17:00,44.8,37.3,30.37,NNW,338,8.1,8.1,75,0.00,CLR,,0.00,0.0,WeatherDisplay:10.37,2013-12-23 06:17:00,
2013-12-23 08:22:00,45.1,37.7,30.37,East,90,4.6,4.6,75,0.00,CLR,,0.00,0.0,WeatherDisplay:10.37,2013-12-23 06:22:00,
2013-12-23 08:27:00,45.3,37.9,30.38,North,0,4.6,4.6,75,0.00,CLR,,0.00,0.0,WeatherDisplay:10.37,2013-12-23 06:27:00,
2013-12-23 08:32:00,45.5,37.7,30.37,NNE,22,6.3,6.3,74,0.00,CLR,,0.00,0.0,WeatherDisplay:10.37,2013-12-23 06:32:00,
2013-12-23 08:37:00,45.7,37.9,30.37,NE,45,3.5,3.5,74,0.00,CLR,,0.00,2.8,WeatherDisplay:10.37,2013-12-23 06:37:00,
2013-12-23 08:42:00,46.0,38.2,30.37,ENE,68,3.5,3.5,74,0.00,CLR,,0.00,7.3,WeatherDisplay:10.37,2013-12-23 06:42:00,
2013-12-23 08:47:00,46.6,38.7,30.37,East,90,3.5,3.5,74,0.00,CLR,,0.00,16.6,WeatherDisplay:10.37,2013-12-23 06:47:00,
2013-12-23 08:52:00,46.9,39.1,30.37,North,0,5.8,5.8,74,0.00,CLR,,0.00,23.5,WeatherDisplay:10.37,2013-12-23 06:52:00,
2013-12-23 08:57:00,47.5,39.6,30.38,ESE,112,3.5,3.5,74,0.00,CLR,,0.00,31.5,WeatherDisplay:10.37,2013-12-23 06:57:00,
2013-12-23 09:02:00,47.8,39.6,30.38,NE,45,4.6,4.6,73,0.00,OVC,,0.00,40.4,WeatherDisplay:10.37,2013-12-23 07:02:00,
2013-12-23 09:07:00,48.2,39.9,30.38,NE,45,3.5,3.5,73,0.00,OVC,,0.00,47.9,WeatherDisplay:10.37,2013-12-23 07:07:00,
2013-12-23 09:12:00,48.6,40.3,30.38,NE,45,2.3,2.3,73,0.00,OVC,,0.00,12.4,WeatherDisplay:10.37,2013-12-23 07:12:00,
2013-12-23 09:17:00,48.9,40.6,30.38,North,0,8.1,8.1,73,0.00,OVC,,0.00,12.9,WeatherDisplay:10.37,2013-12-23 07:17:00,
2013-12-23 09:22:00,49.3,40.6,30.37,North,0,1.2,1.2,72,0.00,OVC,,0.00,16.0,WeatherDisplay:10.37,2013-12-23 07:22:00,
2013-12-23 09:27:00,49.6,41.0,30.38,East,90,4.6,4.6,72,0.00,OVC,,0.00,42.0,WeatherDisplay:10.37,2013-12-23 07:27:00,
2013-12-23 09:32:00,50.2,41.1,30.38,NNW,338,5.8,5.8,71,0.00,OVC,,0.00,103.1,WeatherDisplay:10.37,2013-12-23 07:32:00,
2013-12-23 09:37:00,50.5,41.5,30.38,NE,45,4.5,4.5,71,0.00,OVC,,0.00,114.5,WeatherDisplay:10.37,2013-12-23 07:37:00,
2013-12-23 09:42:00,50.9,41.8,30.38,North,0,3.5,3.5,71,0.00,CLR,,0.00,126.0,WeatherDisplay:10.37,2013-12-23 07:42:00,
2013-12-23 09:47:00,51.1,41.6,30.38,NE,45,5.1,5.1,70,0.00,CLR,,0.00,136.9,WeatherDisplay:10.37,2013-12-23 07:47:00,
2013-12-23 09:52:00,51.1,41.6,30.38,NNW,338,5.8,5.8,70,0.00,CLR,,0.00,149.0,WeatherDisplay:10.37,2013-12-23 07:52:00,
2013-12-23 09:57:00,51.4,41.6,30.37,NNW,338,8.1,8.1,69,0.00,CLR,,0.00,159.6,WeatherDisplay:10.37,2013-12-23 07:57:00,
2013-12-23 10:02:00,51.6,42.2,30.38,NE,45,5.8,5.8,70,0.00,CLR,,0.00,169.7,WeatherDisplay:10.37,2013-12-23 08:02:00,
2013-12-23 10:07:00,51.8,41.9,30.38,ENE,68,9.2,9.2,69,0.00,CLR,,0.00,179.1,WeatherDisplay:10.37,2013-12-23 08:07:00,
2013-12-23 10:12:00,52.0,42.1,30.38,NNE,22,4.6,4.6,69,0.00,CLR,,0.00,189.2,WeatherDisplay:10.37,2013-12-23 08:12:00,
2013-12-23 10:17:00,52.3,42.5,30.37,North,0,3.5,3.5,69,0.00,CLR,,0.00,195.2,WeatherDisplay:10.37,2013-12-23 08:17:00,
2013-12-23 10:22:00,52.5,42.3,30.37,NE,45,9.2,9.2,68,0.00,CLR,,0.00,200.8,WeatherDisplay:10.37,2013-12-23 08:22:00,
2013-12-23 10:27:00,52.9,42.2,30.37,NNE,22,5.8,5.8,67,0.00,CLR,,0.00,203.8,WeatherDisplay:10.37,2013-12-23 08:27:00,
2013-12-23 10:32:00,53.2,42.6,30.37,NNW,338,5.8,5.8,67,0.00,CLR,,0.00,188.6,WeatherDisplay:10.37,2013-12-23 08:32:00,
2013-12-23 10:37:00,53.2,42.6,30.37,NNE,22,4.9,4.9,67,0.00,SCT,,0.00,52.8,WeatherDisplay:10.37,2013-12-23 08:37:00,
2013-12-23 10:42:00,53.4,42.3,30.37,East,90,4.6,4.6,66,0.00,BKN,,0.00,60.1,WeatherDisplay:10.37,2013-12-23 08:42:00,
2013-12-23 10:47:00,53.4,41.9,30.37,NE,45,5.8,5.8,65,0.00,BKN,,0.00,145.5,WeatherDisplay:10.37,2013-12-23 08:47:00,
2013-12-23 10:52:00,54.0,42.5,30.36,NNE,22,4.6,4.6,65,0.00,SCT,,0.00,244.5,WeatherDisplay:10.37,2013-12-23 08:52:00,
2013-12-23 10:57:00,54.1,42.6,30.36,ENE,68,5.8,5.8,65,0.00,FEW,,0.00,254.6,WeatherDisplay:10.37,2013-12-23 08:57:00,
2013-12-23 11:02:00,54.3,42.8,30.36,ENE,68,9.2,9.2,65,0.00,CLR,,0.00,265.8,WeatherDisplay:10.37,2013-12-23 09:02:00,
2013-12-23 11:07:00,54.0,42.1,30.36,ENE,68,6.9,6.9,64,0.00,CLR,,0.00,272.7,WeatherDisplay:10.37,2013-12-23 09:07:00,
2013-12-23 11:12:00,54.1,42.2,30.36,NNW,338,5.8,5.8,64,0.00,CLR,,0.00,278.9,WeatherDisplay:10.37,2013-12-23 09:12:00,
2013-12-23 11:17:00,54.7,42.7,30.36,NE,45,8.1,8.1,64,0.00,CLR,,0.00,281.9,WeatherDisplay:10.37,2013-12-23 09:17:00,
2013-12-23 11:22:00,55.0,42.7,30.36,NNE,22,3.5,3.5,63,0.00,CLR,,0.00,277.4,WeatherDisplay:10.37,2013-12-23 09:22:00,
2013-12-23 11:27:00,55.2,42.8,30.36,ENE,68,3.5,3.5,63,0.00,FEW,,0.00,238.5,WeatherDisplay:10.37,2013-12-23 09:27:00,
2013-12-23 11:32:00,55.6,43.2,30.35,NNE,22,3.5,3.5,63,0.00,FEW,,0.00,268.3,WeatherDisplay:10.37,2013-12-23 09:32:00,
2013-12-23 11:37:00,56.1,43.3,30.35,NNE,22,2.5,0.0,62,0.00,FEW,,0.00,257.8,WeatherDisplay:10.37,2013-12-23 09:37:00,
2013-12-23 11:42:00,56.5,43.6,30.36,SSE,158,1.2,1.2,62,0.00,SCT,,0.00,237.0,WeatherDisplay:10.37,2013-12-23 09:42:00,
2013-12-23 11:47:00,57.0,43.3,30.35,ENE,68,3.5,3.5,60,0.00,SCT,,0.00,78.7,WeatherDisplay:10.37,2013-12-23 09:47:00,
2013-12-23 11:52:00,57.0,42.8,30.34,ENE,68,1.3,1.3,59,0.00,BKN,,0.00,90.5,WeatherDisplay:10.37,2013-12-23 09:52:00,
2013-12-23 11:57:00,57.7,43.5,30.34,SE,135,0.0,0.0,59,0.00,BKN,,0.00,241.8,WeatherDisplay:10.37,2013-12-23 09:57:00,
2013-12-23 12:02:00,58.1,42.9,30.34,SE,135,0.0,0.0,57,0.00,SCT,,0.00,232.3,WeatherDisplay:10.37,2013-12-23 10:02:00,
2013-12-23 12:07:00,58.3,43.1,30.34,NNE,22,2.3,2.3,57,0.00,BKN,,0.00,79.4,WeatherDisplay:10.37,2013-12-23 10:07:00,
2013-12-23 12:12:00,58.1,42.5,30.34,NNW,338,0.0,0.0,56,0.00,BKN,,0.00,76.0,WeatherDisplay:10.37,2013-12-23 10:12:00,
2013-12-23 12:17:00,58.5,42.3,30.33,WSW,248,0.0,0.0,55,0.00,BKN,,0.00,88.0,WeatherDisplay:10.37,2013-12-23 10:17:00,
2013-12-23 12:22:00,59.0,42.8,30.33,West,270,0.0,0.0,55,0.00,BKN,,0.00,66.6,WeatherDisplay:10.37,2013-12-23 10:22:00,
2013-12-23 12:27:00,59.5,42.9,30.33,SSE,158,3.6,3.6,54,0.00,BKN,,0.00,63.5,WeatherDisplay:10.37,2013-12-23 10:27:00,
2013-12-23 12:32:00,59.7,42.6,30.33,SE,135,1.2,1.2,53,0.00,BKN,,0.00,72.2,WeatherDisplay:10.37,2013-12-23 10:32:00,
2013-12-23 12:37:00,59.5,41.9,30.32,ENE,68,0.0,0.0,52,0.00,BKN,,0.00,87.2,WeatherDisplay:10.37,2013-12-23 10:37:00,
2013-12-23 12:42:00,59.7,42.1,30.32,South,180,1.2,1.2,52,0.00,BKN,,0.00,245.4,WeatherDisplay:10.37,2013-12-23 10:42:00,
2013-12-23 12:47:00,59.9,42.2,30.32,ESE,112,3.5,3.5,52,0.00,BKN,,0.00,223.0,WeatherDisplay:10.37,2013-12-23 10:47:00,
2013-12-23 12:52:00,59.7,41.6,30.31,SE,135,0.0,0.0,51,0.00,SCT,,0.00,240.1,WeatherDisplay:10.37,2013-12-23 10:52:00,
2013-12-23 12:57:00,59.7,41.0,30.32,SSW,202,3.5,3.5,50,0.00,BKN,,0.00,228.2,WeatherDisplay:10.37,2013-12-23 10:57:00,
2013-12-23 13:02:00,59.4,40.7,30.32,WSW,248,1.2,0.0,50,0.00,BKN,,0.00,141.9,WeatherDisplay:10.37,2013-12-23 11:02:00,
2013-12-23 13:07:00,59.5,40.9,30.31,SSW,202,3.5,3.5,50,0.00,BKN,,0.00,162.8,WeatherDisplay:10.37,2013-12-23 11:07:00,
2013-12-23 13:12:00,59.4,40.2,30.31,WSW,248,0.0,0.0,49,0.00,BKN,,0.00,238.5,WeatherDisplay:10.37,2013-12-23 11:12:00,
2013-12-23 13:17:00,60.1,40.3,30.30,South,180,3.1,3.1,48,0.00,SCT,,0.00,235.0,WeatherDisplay:10.37,2013-12-23 11:17:00,
2013-12-23 13:22:00,59.9,40.1,30.30,South,180,0.0,0.3,48,0.00,BKN,,0.00,199.6,WeatherDisplay:10.37,2013-12-23 11:22:00,
2013-12-23 13:27:00,59.7,39.4,30.29,SSE,158,1.2,1.2,47,0.00,BKN,,0.00,93.8,WeatherDisplay:10.37,2013-12-23 11:27:00,
2013-12-23 13:32:00,59.9,39.6,30.29,ESE,112,2.3,2.3,47,0.00,BKN,,0.00,175.3,WeatherDisplay:10.37,2013-12-23 11:32:00,
2013-12-23 13:37:00,60.4,39.5,30.29,SW,225,2.3,2.3,46,0.00,BKN,,0.00,180.9,WeatherDisplay:10.37,2013-12-23 11:37:00,
2013-12-23 13:42:00,60.6,39.7,30.29,West,270,0.0,0.0,46,0.00,BKN,,0.00,154.4,WeatherDisplay:10.37,2013-12-23 11:42:00,
2013-12-23 13:47:00,61.3,40.4,30.29,West,270,0.0,0.0,46,0.00,BKN,,0.00,153.8,WeatherDisplay:10.37,2013-12-23 11:47:00,
2013-12-23 13:52:00,61.5,40.0,30.29,SSE,158,3.5,3.5,45,0.00,BKN,,0.00,174.4,WeatherDisplay:10.37,2013-12-23 11:52:00,
2013-12-23 13:57:00,60.8,39.3,30.29,SSW,202,4.6,4.6,45,0.00,BKN,,0.00,86.7,WeatherDisplay:10.37,2013-12-23 11:57:00,
2013-12-23 14:02:00,60.1,39.2,30.29,SSE,158,4.5,4.5,46,0.00,FEW,,0.00,67.1,WeatherDisplay:10.37,2013-12-23 12:02:00,
2013-12-23 14:07:00,59.5,39.3,30.29,ENE,68,3.5,3.5,47,0.00,FEW,,0.00,114.5,WeatherDisplay:10.37,2013-12-23 12:07:00,
2013-12-23 14:12:00,59.5,39.3,30.29,SW,225,3.5,3.5,47,0.00,FEW,,0.00,53.2,WeatherDisplay:10.37,2013-12-23 12:12:00,
2013-12-23 14:17:00,59.4,39.7,30.29,West,270,0.0,0.0,48,0.00,FEW,,0.00,59.7,WeatherDisplay:10.37,2013-12-23 12:17:00,
2013-12-23 14:22:00,59.5,39.8,30.29,SSW,202,2.3,2.3,48,0.00,FEW,,0.00,38.6,WeatherDisplay:10.37,2013-12-23 12:22:00,
2013-12-23 14:27:00,59.7,40.0,30.29,SSE,158,0.0,0.1,48,0.00,FEW,,0.00,33.5,WeatherDisplay:10.37,2013-12-23 12:27:00,
2013-12-23 14:32:00,59.7,40.0,30.29,South,180,2.3,2.3,48,0.00,FEW,,0.00,32.2,WeatherDisplay:10.37,2013-12-23 12:32:00,
2013-12-23 14:37:00,60.1,40.3,30.29,South,180,0.0,0.0,48,0.00,FEW,,0.00,29.4,WeatherDisplay:10.37,2013-12-23 12:37:00,
2013-12-23 14:42:00,60.1,40.3,30.28,ENE,68,2.3,2.3,48,0.00,FEW,,0.00,27.7,WeatherDisplay:10.37,2013-12-23 12:42:00,
2013-12-23 14:47:00,60.1,40.3,30.27,ENE,68,0.0,0.0,48,0.00,FEW,,0.00,19.0,WeatherDisplay:10.37,2013-12-23 12:47:00,
2013-12-23 14:52:00,60.4,40.6,30.27,SE,135,0.0,0.0,48,0.00,FEW,,0.00,16.5,WeatherDisplay:10.37,2013-12-23 12:52:00,
2013-12-23 14:57:00,60.1,40.3,30.27,NNE,22,0.0,0.0,48,0.00,FEW,,0.00,17.1,WeatherDisplay:10.37,2013-12-23 12:57:00,
2013-12-23 15:02:00,59.5,39.8,30.28,East,90,1.2,1.2,48,0.00,FEW,,0.00,18.0,WeatherDisplay:10.37,2013-12-23 13:02:00,
2013-12-23 15:07:00,58.8,39.2,30.28,East,90,0.0,0.0,48,0.00,FEW,,0.00,15.6,WeatherDisplay:10.37,2013-12-23 13:07:00,
2013-12-23 15:12:00,58.8,39.2,30.28,SSE,158,1.2,1.2,48,0.00,FEW,,0.00,19.2,WeatherDisplay:10.37,2013-12-23 13:12:00,
2013-12-23 15:17:00,58.6,39.5,30.27,ENE,68,0.0,0.0,49,0.00,FEW,,0.00,21.3,WeatherDisplay:10.37,2013-12-23 13:17:00,
2013-12-23 15:22:00,58.3,39.2,30.28,ESE,112,0.0,0.0,49,0.00,FEW,,0.00,16.4,WeatherDisplay:10.37,2013-12-23 13:22:00,
2013-12-23 15:27:00,58.5,39.4,30.27,East,90,0.0,0.0,49,0.00,FEW,,0.00,18.5,WeatherDisplay:10.37,2013-12-23 13:27:00,
2013-12-23 15:32:00,58.6,39.5,30.27,East,90,0.0,0.0,49,0.00,FEW,,0.00,20.8,WeatherDisplay:10.37,2013-12-23 13:32:00,
2013-12-23 15:37:00,58.6,39.5,30.28,East,90,0.0,0.0,49,0.00,FEW,,0.00,19.2,WeatherDisplay:10.37,2013-12-23 13:37:00,
2013-12-23 15:42:00,58.8,40.2,30.28,NE,45,4.6,4.6,50,0.00,FEW,,0.00,16.9,WeatherDisplay:10.37,2013-12-23 13:42:00,
2013-12-23 15:47:00,58.5,40.9,30.28,ENE,68,2.3,2.3,52,0.00,FEW,,0.00,14.7,WeatherDisplay:10.37,2013-12-23 13:47:00,
2013-12-23 15:52:00,58.1,41.0,30.27,NE,45,2.3,2.3,53,0.00,FEW,,0.00,10.5,WeatherDisplay:10.37,2013-12-23 13:52:00,
2013-12-23 15:57:00,57.4,41.3,30.27,ENE,68,4.6,4.6,55,0.00,FEW,,0.00,6.0,WeatherDisplay:10.37,2013-12-23 13:57:00,
2013-12-23 16:02:00,56.5,41.0,30.28,NNW,338,3.5,3.5,56,0.00,FEW,,0.00,4.9,WeatherDisplay:10.37,2013-12-23 14:02:00,
2013-12-23 16:07:00,55.9,40.9,30.28,NE,45,2.3,2.3,57,0.00,FEW,,0.00,8.0,WeatherDisplay:10.37,2013-12-23 14:07:00,
2013-12-23 16:12:00,55.6,41.0,30.28,NE,45,3.6,3.6,58,0.00,FEW,,0.00,8.4,WeatherDisplay:10.37,2013-12-23 14:12:00,
2013-12-23 16:17:00,55.2,41.1,30.28,NE,45,3.5,3.5,59,0.00,SCT,,0.00,6.0,WeatherDisplay:10.37,2013-12-23 14:17:00,
2013-12-23 16:22:00,55.0,41.0,30.28,ENE,68,6.9,6.9,59,0.00,SCT,,0.00,2.9,WeatherDisplay:10.37,2013-12-23 14:22:00,
2013-12-23 16:27:00,54.5,40.9,30.28,ENE,68,2.3,2.3,60,0.00,SCT,,0.00,2.7,WeatherDisplay:10.37,2013-12-23 14:27:00,
2013-12-23 16:32:00,54.3,40.7,30.29,East,90,3.5,3.5,60,0.00,SCT,,0.00,2.6,WeatherDisplay:10.37,2013-12-23 14:32:00,
2013-12-23 16:37:00,54.1,41.0,30.29,NNE,22,1.2,1.2,61,0.00,SCT,,0.00,3.1,WeatherDisplay:10.37,2013-12-23 14:37:00,
2013-12-23 16:42:00,53.8,40.6,30.28,ENE,68,3.5,3.5,61,0.00,SCT,,0.00,2.3,WeatherDisplay:10.37,2013-12-23 14:42:00,
2013-12-23 16:47:00,53.4,40.7,30.29,East,90,3.5,3.5,62,0.00,SCT,,0.00,1.8,WeatherDisplay:10.37,2013-12-23 14:47:00,
2013-12-23 16:52:00,53.4,41.1,30.28,ENE,68,2.3,2.3,63,0.00,SCT,,0.00,1.2,WeatherDisplay:10.37,2013-12-23 14:52:00,
2013-12-23 16:57:00,53.2,41.0,30.28,North,0,3.5,3.5,63,0.00,SCT,,0.00,0.8,WeatherDisplay:10.37,2013-12-23 14:57:00,
2013-12-23 17:02:00,52.9,40.6,30.29,ENE,68,3.5,3.5,63,0.00,SCT,,0.00,0.7,WeatherDisplay:10.37,2013-12-23 15:02:00,
2013-12-23 17:07:00,52.5,40.7,30.28,North,0,3.6,3.6,64,0.00,SCT,,0.00,0.3,WeatherDisplay:10.37,2013-12-23 15:07:00,
2013-12-23 17:12:00,52.3,40.9,30.28,North,0,4.6,4.6,65,0.00,SCT,,0.00,0.2,WeatherDisplay:10.37,2013-12-23 15:12:00,
2013-12-23 17:17:00,52.0,40.6,30.28,NE,45,4.6,4.6,65,0.00,SCT,,0.00,0.2,WeatherDisplay:10.37,2013-12-23 15:17:00,
2013-12-23 17:22:00,52.0,41.0,30.29,NNE,22,3.5,3.5,66,0.00,SCT,,0.00,0.0,WeatherDisplay:10.37,2013-12-23 15:22:00,
2013-12-23 17:27:00,51.6,40.6,30.29,ENE,68,3.5,3.5,66,0.00,SCT,,0.00,0.2,WeatherDisplay:10.37,2013-12-23 15:27:00,
2013-12-23 17:32:00,51.4,40.8,30.29,North,0,4.0,4.0,67,0.00,SCT,,0.00,0.0,WeatherDisplay:10.37,2013-12-23 15:32:00,
2013-12-23 17:37:00,51.3,40.7,30.29,NW,315,5.8,5.8,67,0.00,SCT,,0.00,0.0,WeatherDisplay:10.37,2013-12-23 15:37:00,
2013-12-23 17:42:00,51.1,40.9,30.29,NE,45,8.1,8.1,68,0.00,SCT,,0.00,0.0,WeatherDisplay:10.37,2013-12-23 15:42:00,
2013-12-23 17:47:00,50.9,40.7,30.29,NE,45,3.5,3.5,68,0.00,SCT,,0.00,0.0,WeatherDisplay:10.37,2013-12-23 15:47:00,
2013-12-23 17:52:00,50.7,40.9,30.29,NNE,22,4.6,4.6,69,0.00,SCT,,0.00,0.0,WeatherDisplay:10.37,2013-12-23 15:52:00,
2013-12-23 17:57:00,50.7,40.9,30.29,North,0,6.9,6.9,69,0.00,SCT,,0.00,0.0,WeatherDisplay:10.37,2013-12-23 15:57:00,
2013-12-23 18:02:00,50.7,40.9,30.29,East,90,4.6,4.6,69,0.00,SCT,,0.00,0.0,WeatherDisplay:10.37,2013-12-23 16:02:00,
2013-12-23 18:07:00,50.5,40.7,30.29,NNE,22,4.6,4.6,69,0.00,SCT,,0.00,0.0,WeatherDisplay:10.37,2013-12-23 16:07:00,
2013-12-23 18:12:00,50.5,41.1,30.30,North,0,4.6,4.6,70,0.00,SCT,,0.00,0.0,WeatherDisplay:10.37,2013-12-23 16:12:00,
2013-12-23 18:17:00,50.4,40.9,30.30,NNW,338,2.3,2.3,70,0.00,SCT,,0.00,0.0,WeatherDisplay:10.37,2013-12-23 16:17:00,
2013-12-23 18:22:00,50.2,40.8,30.30,NE,45,4.6,4.6,70,0.00,SCT,,0.00,0.0,WeatherDisplay:10.37,2013-12-23 16:22:00,
2013-12-23 18:27:00,50.2,41.1,30.30,North,0,8.1,8.1,71,0.00,SCT,,0.00,0.0,WeatherDisplay:10.37,2013-12-23 16:27:00,
2013-12-23 18:32:00,50.2,41.1,30.30,NNE,22,5.8,5.8,71,0.00,SCT,,0.00,0.0,WeatherDisplay:10.37,2013-12-23 16:32:00,
2013-12-23 18:37:00,49.8,40.8,30.30,North,0,2.3,2.3,71,0.00,SCT,,0.00,0.0,WeatherDisplay:10.37,2013-12-23 16:37:00,
2013-12-23 18:42:00,49.8,40.8,30.30,North,0,3.5,3.5,71,0.00,SCT,,0.00,0.0,WeatherDisplay:10.37,2013-12-23 16:42:00,
2013-12-23 18:47:00,49.8,40.8,30.31,NNE,22,3.5,3.5,71,0.00,SCT,,0.00,0.0,WeatherDisplay:10.37,2013-12-23 16:47:00,
2013-12-23 18:52:00,49.6,41.0,30.31,North,0,6.9,6.9,72,0.00,SCT,,0.00,0.0,WeatherDisplay:10.37,2013-12-23 16:52:00,
2013-12-23 18:57:00,49.6,41.0,30.31,NE,45,3.5,3.5,72,0.00,SCT,,0.00,0.0,WeatherDisplay:10.37,2013-12-23 16:57:00,
2013-12-23 19:02:00,49.6,41.0,30.31,NNE,22,4.6,4.6,72,0.00,SCT,,0.00,0.0,WeatherDisplay:10.37,2013-12-23 17:02:00,
2013-12-23 19:07:00,49.6,41.0,30.31,NNE,22,4.6,4.6,72,0.00,SCT,,0.00,0.0,WeatherDisplay:10.37,2013-12-23 17:07:00,
2013-12-23 19:12:00,49.6,41.3,30.31,ENE,68,9.2,9.2,73,0.00,SCT,,0.00,0.0,WeatherDisplay:10.37,2013-12-23 17:12:00,
2013-12-23 19:17:00,49.6,41.3,30.31,NNW,338,5.6,5.6,73,0.00,FEW,,0.00,0.0,WeatherDisplay:10.37,2013-12-23 17:17:00,
2013-12-23 19:22:00,49.6,41.3,30.31,ENE,68,4.6,4.6,73,0.00,FEW,,0.00,0.0,WeatherDisplay:10.37,2013-12-23 17:22:00,
2013-12-23 19:27:00,49.6,41.3,30.30,East,90,3.1,3.1,73,0.00,FEW,,0.00,0.0,WeatherDisplay:10.37,2013-12-23 17:27:00,
2013-12-23 19:32:00,49.5,41.2,30.30,NNW,338,3.4,3.4,73,0.00,FEW,,0.00,0.0,WeatherDisplay:10.37,2013-12-23 17:32:00,
2013-12-23 19:37:00,49.3,41.0,30.30,NE,45,8.1,8.1,73,0.00,FEW,,0.00,0.0,WeatherDisplay:10.37,2013-12-23 17:37:00,
2013-12-23 19:42:00,49.3,41.0,30.30,NNE,22,2.3,2.3,73,0.00,FEW,,0.00,0.0,WeatherDisplay:10.37,2013-12-23 17:42:00,
2013-12-23 19:47:00,49.3,41.0,30.30,North,0,2.3,2.3,73,0.00,SCT,,0.00,0.0,WeatherDisplay:10.37,2013-12-23 17:47:00,
2013-12-23 19:52:00,49.3,41.0,30.30,ENE,68,2.3,2.3,73,0.00,SCT,,0.00,0.0,WeatherDisplay:10.37,2013-12-23 17:52:00,
2013-12-23 19:57:00,49.3,41.3,30.30,North,0,2.3,2.3,74,0.00,SCT,,0.00,0.0,WeatherDisplay:10.37,2013-12-23 17:57:00,
2013-12-23 20:02:00,49.3,41.3,30.30,NNE,22,4.6,4.6,74,0.00,BKN,,0.00,0.0,WeatherDisplay:10.37,2013-12-23 18:02:00,
2013-12-23 20:07:00,49.1,41.2,30.31,NNE,22,3.5,3.5,74,0.00,BKN,,0.00,0.0,WeatherDisplay:10.37,2013-12-23 18:07:00,
2013-12-23 20:12:00,49.1,41.2,30.31,North,0,2.2,2.2,74,0.00,BKN,,0.00,0.0,WeatherDisplay:10.37,2013-12-23 18:12:00,
2013-12-23 20:17:00,49.1,41.2,30.31,NNW,338,6.9,6.9,74,0.00,BKN,,0.00,0.0,WeatherDisplay:10.37,2013-12-23 18:17:00,
2013-12-23 20:22:00,49.1,41.2,30.31,ENE,68,4.6,4.6,74,0.00,BKN,,0.00,0.0,WeatherDisplay:10.37,2013-12-23 18:22:00,
2013-12-23 20:27:00,49.1,41.2,30.31,NNE,22,2.3,2.3,74,0.00,BKN,,0.00,0.0,WeatherDisplay:10.37,2013-12-23 18:27:00,
2013-12-23 20:32:00,49.1,41.2,30.31,NNE,22,3.5,3.5,74,0.00,BKN,,0.00,0.0,WeatherDisplay:10.37,2013-12-23 18:32:00,
2013-12-23 20:37:00,49.1,41.2,30.31,NNW,338,3.5,3.5,74,0.00,BKN,,0.00,0.0,WeatherDisplay:10.37,2013-12-23 18:37:00,
2013-12-23 20:42:00,49.1,41.2,30.31,NNE,22,3.5,3.5,74,0.00,BKN,,0.00,0.0,WeatherDisplay:10.37,2013-12-23 18:42:00,
2013-12-23 20:47:00,48.9,41.3,30.31,ENE,68,4.6,4.6,75,0.00,FEW,,0.00,0.0,WeatherDisplay:10.37,2013-12-23 18:47:00,
2013-12-23 20:52:00,48.9,41.3,30.31,North,0,3.5,3.5,75,0.00,FEW,,0.00,0.0,WeatherDisplay:10.37,2013-12-23 18:52:00,
2013-12-23 20:57:00,48.9,41.3,30.31,NNE,22,2.3,2.3,75,0.00,FEW,,0.00,0.0,WeatherDisplay:10.37,2013-12-23 18:57:00,
2013-12-23 21:02:00,48.7,41.2,30.31,NNW,338,3.5,3.5,75,0.00,BKN,,0.00,0.0,WeatherDisplay:10.37,2013-12-23 19:02:00,
2013-12-23 21:07:00,48.7,41.2,30.31,NNW,338,2.3,2.3,75,0.00,BKN,,0.00,0.0,WeatherDisplay:10.37,2013-12-23 19:07:00,
2013-12-23 21:12:00,48.7,41.2,30.31,ENE,68,4.6,4.6,75,0.00,BKN,,0.00,0.0,WeatherDisplay:10.37,2013-12-23 19:12:00,
2013-12-23 21:17:00,48.7,41.2,30.31,NE,45,4.6,4.6,75,0.00,BKN,,0.00,0.0,WeatherDisplay:10.37,2013-12-23 19:17:00,
2013-12-23 21:22:00,48.7,41.2,30.31,NNE,22,4.6,4.6,75,0.00,BKN,,0.00,0.0,WeatherDisplay:10.37,2013-12-23 19:22:00,
2013-12-23 21:27:00,48.7,41.2,30.31,NNW,338,8.1,8.1,75,0.00,BKN,,0.00,0.0,WeatherDisplay:10.37,2013-12-23 19:27:00,
2013-12-23 21:32:00,48.7,41.2,30.31,NNW,338,3.5,3.5,75,0.00,BKN,,0.00,0.0,WeatherDisplay:10.37,2013-12-23 19:32:00,
2013-12-23 21:37:00,48.7,41.2,30.31,ESE,112,4.6,4.6,75,0.00,BKN,,0.00,0.0,WeatherDisplay:10.37,2013-12-23 19:37:00,
2013-12-23 21:42:00,48.6,41.3,30.31,NNE,22,2.3,2.3,76,0.00,BKN,,0.00,0.0,WeatherDisplay:10.37,2013-12-23 19:42:00,
2013-12-23 21:47:00,48.6,41.3,30.31,North,0,4.7,0.0,76,0.00,BKN,,0.00,0.0,WeatherDisplay:10.37,2013-12-23 19:47:00,
2013-12-23 21:52:00,48.6,41.3,30.31,ENE,68,2.3,2.3,76,0.00,BKN,,0.00,0.0,WeatherDisplay:10.37,2013-12-23 19:52:00,
2013-12-23 21:57:00,48.4,41.2,30.31,North,0,4.6,4.6,76,0.00,BKN,,0.00,0.0,WeatherDisplay:10.37,2013-12-23 19:57:00,
2013-12-23 22:02:00,48.6,41.3,30.31,NNW,338,3.5,3.5,76,0.00,BKN,,0.00,0.0,WeatherDisplay:10.37,2013-12-23 20:02:00,
2013-12-23 22:07:00,48.4,41.2,30.31,NNE,22,2.3,2.3,76,0.00,BKN,,0.00,0.0,WeatherDisplay:10.37,2013-12-23 20:07:00,
2013-12-23 22:12:00,48.4,41.2,30.31,ENE,68,3.5,3.5,76,0.00,BKN,,0.00,0.0,WeatherDisplay:10.37,2013-12-23 20:12:00,
2013-12-23 22:17:00,48.4,41.2,30.31,NE,45,2.3,2.3,76,0.00,BKN,,0.00,0.0,WeatherDisplay:10.37,2013-12-23 20:17:00,
2013-12-23 22:22:00,48.4,41.2,30.31,NNE,22,2.3,2.3,76,0.00,BKN,,0.00,0.0,WeatherDisplay:10.37,2013-12-23 20:22:00,
2013-12-23 22:27:00,48.6,41.7,30.31,ENE,68,2.3,2.3,77,0.00,BKN,,0.00,0.0,WeatherDisplay:10.37,2013-12-23 20:27:00,
2013-12-23 22:32:00,48.6,41.7,30.31,NNE,22,2.3,2.3,77,0.00,BKN,,0.00,0.0,WeatherDisplay:10.37,2013-12-23 20:32:00,
2013-12-23 22:37:00,48.7,41.8,30.31,North,0,3.5,3.5,77,0.00,BKN,,0.00,0.0,WeatherDisplay:10.37,2013-12-23 20:37:00,
2013-12-23 22:42:00,48.7,41.8,30.31,ENE,68,3.5,3.5,77,0.00,BKN,,0.00,0.0,WeatherDisplay:10.37,2013-12-23 20:42:00,
2013-12-23 22:47:00,48.7,41.8,30.31,NNE,22,5.8,5.8,77,0.00,BKN,,0.00,0.0,WeatherDisplay:10.37,2013-12-23 20:47:00,
2013-12-23 22:52:00,48.6,41.7,30.31,NNW,338,3.5,3.5,77,0.00,BKN,,0.00,0.0,WeatherDisplay:10.37,2013-12-23 20:52:00,
2013-12-23 22:57:00,48.6,41.7,30.31,North,0,4.6,4.6,77,0.00,BKN,,0.00,0.0,WeatherDisplay:10.37,2013-12-23 20:57:00,
2013-12-23 23:02:00,48.4,41.5,30.31,NNE,22,3.5,3.5,77,0.00,FEW,,0.00,0.0,WeatherDisplay:10.37,2013-12-23 21:02:00,
2013-12-23 23:07:00,48.4,41.5,30.31,NW,315,3.5,3.5,77,0.00,FEW,,0.00,0.0,WeatherDisplay:10.37,2013-12-23 21:07:00,
2013-12-23 23:12:00,48.6,41.7,30.31,North,0,2.3,2.3,77,0.00,FEW,,0.00,0.0,WeatherDisplay:10.37,2013-12-23 21:12:00,
2013-12-23 23:17:00,48.6,41.7,30.31,NNE,22,4.6,4.6,77,0.00,FEW,,0.00,0.0,WeatherDisplay:10.37,2013-12-23 21:17:00,
2013-12-23 23:22:00,48.6,41.7,30.31,ESE,112,3.5,3.5,77,0.00,FEW,,0.00,0.0,WeatherDisplay:10.37,2013-12-23 21:22:00,
2013-12-23 23:27:00,48.6,41.7,30.31,North,0,1.2,1.2,77,0.00,FEW,,0.00,0.0,WeatherDisplay:10.37,2013-12-23 21:27:00,
2013-12-23 23:32:00,48.6,41.7,30.31,NE,45,2.3,2.3,77,0.00,FEW,,0.00,0.0,WeatherDisplay:10.37,2013-12-23 21:32:00,
2013-12-23 23:37:00,48.7,41.8,30.32,North,0,2.3,2.3,77,0.00,FEW,,0.00,0.0,WeatherDisplay:10.37,2013-12-23 21:37:00,
2013-12-23 23:42:00,48.6,41.7,30.31,East,90,4.6,4.6,77,0.00,FEW,,0.00,0.0,WeatherDisplay:10.37,2013-12-23 21:42:00,
2013-12-23 23:47:00,48.7,41.5,30.31,NW,315,4.6,4.6,76,0.00,FEW,,0.00,0.0,WeatherDisplay:10.37,2013-12-23 21:47:00,
2013-12-23 23:52:00,48.7,41.5,30.31,NNE,22,2.3,2.3,76,0.00,FEW,,0.00,0.0,WeatherDisplay:10.37,2013-12-23 21:52:00,
2013-12-23 23:57:00,48.7,41.5,30.31,NNE,22,3.5,3.5,76,0.00,FEW,,0.00,0.0,WeatherDisplay:10.37,2013-12-23 21:57:00,